Homer, Pennsylvania
Current Conditions -  °F | °C
As of 4:56 AM on Friday 24 Oct 2014 (Local Time) from KELZ Reporting Station
Scattered Clouds Scattered Clouds  
Wind Chill: 38°   Ceiling: Unl
Heat Index: 43°   Visibility: 10mi
Dew Point: 37°   Wind: 9mph
Humidity: 80%   Direction: 320°NW
Pressure: 30"   Gusts: NA
Location:  41.7605°N, 77.9728°W
Report Text: KELZ 240856Z AUTO 32008KT 10SM SCT032 06/03 A3000 RMK AO2 SLP165 T00610028 51008
Loading
Personal Weather Stations






























Interactive Weather Map
Tropical Storm Tracking
New forecast layout! Learn more

10-Day Weather Forecast

Advertisements
Track Severe Weather on mobile